Terminal Aerodrome Forecast
Issued by NWS Birmingham, AL

Home | Current Version | Previous Version | Text Only | Print | Product List | Glossary On
Versions: 1 2 3 4 5 6 7 8 9 10 11 12 13 14 15 16
000
FTUS44 KBMX 241140
TAFBHM
TAF
KBHM 241140Z 2412/2512 15013G19KT P6SM OVC050
     FM241600 17013G20KT P6SM OVC050
     FM250000 15008KT P6SM BKN050
     FM250700 16011G17KT P6SM OVC050=

USA.gov is the U.S. government's official web portal to all federal, state and local government web resources and services.